createdAt,value
2023-02-13T00:00:49.402Z,102357.88
2023-02-13T00:03:17.536Z,102332.22
2023-02-13T00:05:46.056Z,102320.91
2023-02-13T00:08:14.070Z,102363.22
2023-02-13T00:10:42.135Z,102363.22
2023-02-13T00:13:10.179Z,102362.34
2023-02-13T00:15:39.681Z,102351.81
2023-02-13T00:18:07.734Z,102349.91
2023-02-13T00:20:35.783Z,102357.97
2023-02-13T00:23:03.866Z,102350.75
2023-02-13T00:25:32.384Z,102356.13
2023-02-13T00:28:00.456Z,102359.00
2023-02-13T00:30:28.516Z,102356.13
2023-02-13T00:32:57.928Z,102349.81
2023-02-13T00:35:25.973Z,102350.94
2023-02-13T00:37:54.008Z,102349.91
2023-02-13T00:40:22.462Z,102353.44
2023-02-13T00:42:50.522Z,102356.13
2023-02-13T00:45:18.677Z,102364.16
2023-02-13T00:47:46.773Z,102356.13
2023-02-13T00:50:16.258Z,102361.47
2023-02-13T00:52:44.296Z,102357.88
2023-02-13T00:55:12.329Z,102361.47
2023-02-13T00:57:40.367Z,102357.88
2023-02-13T01:00:09.711Z,102355.28
2023-02-13T01:02:37.778Z,102358.81
2023-02-13T01:05:06.090Z,102357.00
2023-02-13T01:07:35.561Z,102316.50
2023-02-13T01:10:03.651Z,102356.13
2023-02-13T01:12:31.668Z,102352.69
2023-02-13T01:14:59.907Z,102361.47
2023-02-13T01:17:27.920Z,102341.97
2023-02-13T01:19:56.110Z,102353.44
2023-02-13T01:22:24.155Z,102354.31
2023-02-13T01:24:53.619Z,102348.06
2023-02-13T01:27:21.649Z,102345.41
2023-02-13T01:29:50.316Z,102312.69
2023-02-13T01:32:18.426Z,102340.03
2023-02-13T01:34:46.491Z,102334.69
2023-02-13T01:37:14.880Z,102324.16
2023-02-13T01:39:42.908Z,102327.59
2023-02-13T01:42:17.685Z,102339.09
2023-02-13T01:44:52.061Z,102339.09
2023-02-13T01:47:25.855Z,102341.78
2023-02-13T01:50:03.143Z,102330.19
2023-02-13T01:52:32.078Z,102331.06
2023-02-13T01:55:00.250Z,102337.25
2023-02-13T01:57:32.786Z,102331.06
2023-02-13T02:00:04.719Z,102334.69
2023-02-13T02:02:38.385Z,102327.59
2023-02-13T02:05:08.503Z,102331.25
2023-02-13T02:07:38.736Z,102315.19
2023-02-13T02:10:11.522Z,102326.84
2023-02-13T02:12:47.969Z,102327.81
2023-02-13T02:15:16.004Z,102334.88
2023-02-13T02:17:44.147Z,102324.16
2023-02-13T02:20:24.234Z,102331.25
2023-02-13T02:23:18.614Z,102334.31
2023-02-13T02:26:36.531Z,102341.97
2023-02-13T02:29:49.563Z,102334.88
2023-02-13T02:32:43.009Z,102342.16
2023-02-13T02:35:20.420Z,102340.50
2023-02-13T02:38:09.715Z,102335.94
2023-02-13T02:40:49.635Z,102332.47
2023-02-13T02:43:31.804Z,102320.91
2023-02-13T02:46:09.043Z,102322.63
2023-02-13T02:49:04.995Z,102321.66
2023-02-13T02:51:41.700Z,102327.03
2023-02-13T02:54:29.518Z,102329.69
2023-02-13T02:57:02.804Z,102331.44
2023-02-13T02:59:50.235Z,102295.09
2023-02-13T03:02:36.742Z,102326.09
2023-02-13T03:05:34.428Z,102327.13
2023-02-13T03:08:04.034Z,102324.34
2023-02-13T03:10:52.848Z,102329.69
2023-02-13T03:13:39.317Z,102329.69
2023-02-13T03:16:25.609Z,102320.91
2023-02-13T03:19:14.518Z,102331.63
2023-02-13T03:22:07.219Z,102323.59
2023-02-13T03:24:51.563Z,102324.53
2023-02-13T03:27:46.958Z,102316.50
2023-02-13T03:30:26.079Z,102322.63
2023-02-13T03:33:10.486Z,102319.19
2023-02-13T03:36:04.345Z,102313.81
2023-02-13T03:38:42.975Z,102311.03
2023-02-13T03:41:19.953Z,102299.47
2023-02-13T03:43:57.721Z,102304.75
2023-02-13T03:46:27.817Z,102313.72
2023-02-13T03:49:15.631Z,102305.88
2023-02-13T03:51:48.516Z,102309.13
2023-02-13T03:54:22.513Z,102305.59
2023-02-13T03:57:11.238Z,102303.78
2023-02-13T03:59:39.459Z,102302.91
2023-02-13T04:02:14.771Z,102299.28
2023-02-13T04:04:51.784Z,102310.00
2023-02-13T04:07:30.822Z,102310.84
2023-02-13T04:10:03.862Z,102311.72
2023-02-13T04:12:40.258Z,102310.00
2023-02-13T04:15:13.674Z,102280.03
2023-02-13T04:17:47.093Z,102308.25
2023-02-13T04:20:15.793Z,102304.66
2023-02-13T04:22:45.121Z,102310.00
2023-02-13T04:25:16.774Z,102304.84
2023-02-13T04:27:45.017Z,102310.00
2023-02-13T04:30:14.259Z,102315.38
2023-02-13T04:32:42.346Z,102326.09
2023-02-13T04:35:11.650Z,102330.47
2023-02-13T04:37:39.764Z,102323.41
2023-02-13T04:40:08.959Z,102327.81
2023-02-13T04:42:38.559Z,102334.03
2023-02-13T04:45:06.920Z,102344.75
2023-02-13T04:47:35.017Z,102333.16
2023-02-13T04:50:03.241Z,102327.81
2023-02-13T04:52:31.329Z,102327.81
2023-02-13T04:54:59.474Z,102333.16
2023-02-13T04:57:27.592Z,102330.66
2023-02-13T04:59:57.078Z,102335.84
2023-02-13T05:02:25.476Z,102329.69
2023-02-13T05:04:53.549Z,102321.56
2023-02-13T05:07:21.629Z,102324.16
2023-02-13T05:09:49.763Z,102324.16
2023-02-13T05:12:17.896Z,102286.09
2023-02-13T05:14:46.121Z,102322.44
2023-02-13T05:17:15.609Z,102321.38
2023-02-13T05:19:43.714Z,102329.31
2023-02-13T05:22:29.985Z,102318.59
2023-02-13T05:24:58.110Z,102323.13
2023-02-13T05:27:26.259Z,102315.19
2023-02-13T05:29:54.319Z,102320.53
2023-02-13T05:32:24.009Z,102328.56
2023-02-13T05:34:52.070Z,102326.75
2023-02-13T05:37:20.361Z,102329.50
2023-02-13T05:39:48.458Z,102334.88
2023-02-13T05:42:16.540Z,102333.06
2023-02-13T05:44:44.583Z,102339.38
2023-02-13T05:47:12.710Z,102341.97
2023-02-13T05:49:42.183Z,102338.44
2023-02-13T05:52:12.144Z,102344.66
2023-02-13T05:54:40.242Z,102343.78
2023-02-13T05:57:08.357Z,102352.69
2023-02-13T05:59:36.428Z,102363.41
2023-02-13T06:02:04.600Z,102367.03
2023-02-13T06:04:32.729Z,102356.31
2023-02-13T06:07:02.230Z,102366.09
2023-02-13T06:09:30.339Z,102364.25
2023-02-13T06:11:58.492Z,102352.00
2023-02-13T06:14:26.594Z,102353.53
2023-02-13T06:16:54.675Z,102366.09
2023-02-13T06:19:23.472Z,102368.78
2023-02-13T06:21:51.521Z,102356.31
2023-02-13T06:24:21.149Z,102365.13
2023-02-13T06:26:49.304Z,102365.13
2023-02-13T06:29:17.440Z,102374.13
2023-02-13T06:31:45.550Z,102374.13
2023-02-13T06:34:13.732Z,102390.22
2023-02-13T06:36:42.713Z,102381.22
2023-02-13T06:39:11.124Z,102383.88
2023-02-13T06:41:40.632Z,102382.28
2023-02-13T06:44:09.068Z,102393.81
2023-02-13T06:46:37.364Z,102394.69
2023-02-13T06:49:05.505Z,102388.47
2023-02-13T06:51:33.640Z,102391.94
2023-02-13T06:54:02.693Z,102379.50
2023-02-13T06:56:30.847Z,102383.09
2023-02-13T06:59:00.457Z,102384.84
2023-02-13T07:01:28.681Z,102382.19
2023-02-13T07:03:56.770Z,102381.22
2023-02-13T07:06:24.903Z,102381.22
2023-02-13T07:08:55.456Z,102374.13
2023-02-13T07:11:25.751Z,102344.84
2023-02-13T07:13:54.483Z,102384.06
2023-02-13T07:16:24.176Z,102381.22
2023-02-13T07:18:52.302Z,102371.47
2023-02-13T07:21:20.436Z,102379.50
2023-02-13T07:23:48.530Z,102376.91
2023-02-13T07:26:17.216Z,102382.19
2023-02-13T07:28:45.709Z,102388.66
2023-02-13T07:31:13.944Z,102395.56
2023-02-13T07:33:43.506Z,102393.81
2023-02-13T07:36:11.669Z,102390.22
2023-02-13T07:38:39.753Z,102374.13
2023-02-13T07:41:07.895Z,102363.41
2023-02-13T07:43:35.986Z,102360.75
2023-02-13T07:46:05.847Z,102336.50
2023-02-13T07:48:34.043Z,102332.41
2023-02-13T07:51:05.954Z,102363.41
2023-02-13T07:53:34.120Z,102361.66
2023-02-13T07:56:07.086Z,102358.25
2023-02-13T07:58:35.300Z,102368.00
2023-02-13T08:01:08.142Z,102372.38
2023-02-13T08:03:36.339Z,102383.97
2023-02-13T08:06:07.258Z,102372.38
2023-02-13T08:08:35.481Z,102390.22
2023-02-13T08:11:24.346Z,102386.94
2023-02-13T08:13:52.460Z,102399.19
2023-02-13T08:16:20.621Z,102425.97
2023-02-13T08:18:48.689Z,102435.88
2023-02-13T08:21:18.124Z,102431.34
2023-02-13T08:23:46.184Z,102435.97
2023-02-13T08:26:14.307Z,102433.28
2023-02-13T08:28:42.421Z,102433.09
2023-02-13T08:31:14.288Z,102444.00
2023-02-13T08:33:42.600Z,102452.78
2023-02-13T08:36:11.158Z,102455.47
2023-02-13T08:41:13.589Z,102468.88
2023-02-13T08:43:41.682Z,102473.38
2023-02-13T08:46:09.769Z,102468.88
2023-02-13T08:48:37.864Z,102474.22
2023-02-13T08:51:08.768Z,102482.25
2023-02-13T08:53:37.850Z,102443.53
2023-02-13T08:56:08.130Z,102488.59
2023-02-13T08:58:36.355Z,102477.88
2023-02-13T09:01:07.299Z,102483.22
2023-02-13T09:03:35.719Z,102481.44
2023-02-13T09:06:04.280Z,102476.16
2023-02-13T09:08:32.533Z,102477.88
2023-02-13T09:11:03.288Z,102482.25
2023-02-13T09:13:34.598Z,102477.88
2023-02-13T09:16:06.044Z,102484.94
2023-02-13T09:18:35.201Z,102465.47
2023-02-13T09:21:05.517Z,102497.41
2023-02-13T09:23:35.030Z,102486.78
2023-02-13T09:26:04.204Z,102476.91
2023-02-13T09:28:34.990Z,102474.22
2023-02-13T09:31:07.225Z,102459.38
2023-02-13T09:33:35.520Z,102481.34
2023-02-13T09:36:06.863Z,102465.25
2023-02-13T09:38:35.204Z,102458.16
2023-02-13T09:41:07.098Z,102452.97
2023-02-13T09:43:42.481Z,102471.53
2023-02-13T09:46:15.006Z,102466.19
2023-02-13T09:48:46.314Z,102463.50
2023-02-13T09:51:17.820Z,102464.38
2023-02-13T09:53:53.298Z,102462.66
2023-02-13T09:56:30.406Z,102454.53
2023-02-13T09:59:04.060Z,102466.09
2023-02-13T10:01:39.016Z,102476.81
2023-02-13T10:04:28.662Z,102468.78
2023-02-13T10:07:14.063Z,102463.69
2023-02-13T10:09:51.723Z,102483.22
2023-02-13T10:12:34.262Z,102482.25
2023-02-13T10:15:17.112Z,102480.47
2023-02-13T10:17:49.314Z,102469.03
2023-02-13T10:20:28.585Z,102477.88
2023-02-13T10:23:01.581Z,102486.88
2023-02-13T10:25:36.505Z,102489.47
2023-02-13T10:28:12.581Z,102503.88
2023-02-13T10:30:51.119Z,102445.22
2023-02-13T10:33:24.986Z,102496.72
2023-02-13T10:36:06.536Z,102506.38
2023-02-13T10:38:36.472Z,102502.94
2023-02-13T10:41:24.167Z,102513.50
2023-02-13T10:44:04.695Z,102506.38
2023-02-13T10:46:44.121Z,102504.66
2023-02-13T10:49:33.793Z,102516.34
2023-02-13T10:52:13.325Z,102519.03
2023-02-13T10:55:03.759Z,102511.00
2023-02-13T10:57:46.244Z,102522.66
2023-02-13T11:00:22.472Z,102519.03
2023-02-13T11:02:52.421Z,102518.16
2023-02-13T11:05:23.790Z,102517.28
2023-02-13T11:07:52.200Z,102471.28
2023-02-13T11:10:21.997Z,102502.00
2023-02-13T11:12:50.557Z,102504.66
2023-02-13T11:15:26.072Z,102518.06
2023-02-13T11:17:58.549Z,102522.47
2023-02-13T11:20:32.566Z,102516.53
2023-02-13T11:23:20.178Z,102529.75
2023-02-13T11:25:59.544Z,102529.56
2023-02-13T11:28:30.570Z,102520.75
2023-02-13T11:31:12.745Z,102514.50
2023-02-13T11:33:42.938Z,102515.38
2023-02-13T11:36:14.916Z,102504.66
2023-02-13T11:38:43.141Z,102502.00
2023-02-13T11:41:13.676Z,102517.09
2023-02-13T11:43:48.569Z,102513.50
2023-02-13T11:46:21.354Z,102511.66
2023-02-13T11:49:16.464Z,102502.09
2023-02-13T11:51:46.919Z,102495.84
2023-02-13T11:54:29.677Z,102497.59
2023-02-13T11:57:07.065Z,102514.41
2023-02-13T11:59:42.251Z,102507.44
2023-02-13T12:02:22.611Z,102516.25
2023-02-13T12:04:54.563Z,102503.78
2023-02-13T12:07:26.200Z,102505.53
2023-02-13T12:10:02.024Z,102511.75
2023-02-13T12:12:38.947Z,102471.91
2023-02-13T12:15:18.616Z,102506.38
2023-02-13T12:17:47.980Z,102506.38
2023-02-13T12:20:19.014Z,102484.16
2023-02-13T12:23:01.146Z,102507.25
2023-02-13T12:25:42.952Z,102518.84
2023-02-13T12:28:16.782Z,102517.97
2023-02-13T12:31:10.162Z,102510.91
2023-02-13T12:34:12.969Z,102515.38
2023-02-13T12:36:52.593Z,102499.31
2023-02-13T12:39:28.785Z,102502.94
2023-02-13T12:42:14.426Z,102513.66
2023-02-13T12:44:58.977Z,102513.66
2023-02-13T12:47:31.539Z,102507.34
2023-02-13T12:50:28.326Z,102511.09
2023-02-13T12:53:29.682Z,102514.50
2023-02-13T12:56:31.477Z,102522.66
2023-02-13T12:59:08.706Z,102530.69
2023-02-13T13:02:20.822Z,102529.94
2023-02-13T13:05:00.925Z,102528.19
2023-02-13T13:07:45.380Z,102526.28
2023-02-13T13:10:43.807Z,102528.97
2023-02-13T13:13:23.397Z,102532.69
2023-02-13T13:16:00.352Z,102536.13
2023-02-13T13:18:41.262Z,102530.78
2023-02-13T13:21:23.122Z,102546.75
2023-02-13T13:24:00.384Z,102543.16
2023-02-13T13:26:37.380Z,102507.47
2023-02-13T13:29:12.301Z,102541.31
2023-02-13T13:31:40.973Z,102542.19
2023-02-13T13:34:18.487Z,102535.09
2023-02-13T13:36:52.420Z,102542.19
2023-02-13T13:39:31.566Z,102552.91
2023-02-13T13:42:09.947Z,102547.53
2023-02-13T13:45:05.288Z,102531.47
2023-02-13T13:47:59.946Z,102537.78
2023-02-13T13:50:29.975Z,102535.28
2023-02-13T13:53:09.764Z,102537.78
2023-02-13T13:56:08.659Z,102541.31
2023-02-13T13:58:41.304Z,102545.81
2023-02-13T14:01:29.380Z,102542.19
2023-02-13T14:03:58.769Z,102542.19
2023-02-13T14:06:28.522Z,102531.47
2023-02-13T14:09:02.283Z,102531.47
2023-02-13T14:11:37.137Z,102534.16
2023-02-13T14:14:54.409Z,102542.19
2023-02-13T14:17:54.593Z,102542.19
2023-02-13T14:20:31.330Z,102538.72
2023-02-13T14:23:09.515Z,102509.41
2023-02-13T14:25:38.930Z,102549.44
2023-02-13T14:28:07.975Z,102553.78
2023-02-13T14:30:40.979Z,102551.09
2023-02-13T14:33:23.906Z,102549.25
2023-02-13T14:36:02.282Z,102559.97
2023-02-13T14:38:31.527Z,102565.34
2023-02-13T14:41:00.188Z,102569.78
2023-02-13T14:43:35.203Z,102567.94
2023-02-13T14:46:22.626Z,102569.78
2023-02-13T14:48:56.744Z,102567.09
2023-02-13T14:51:31.886Z,102567.09
2023-02-13T14:54:06.160Z,102567.09
2023-02-13T14:56:35.166Z,102576.06
2023-02-13T14:59:12.989Z,102571.56
2023-02-13T15:01:48.229Z,102573.38
2023-02-13T15:04:20.444Z,102593.88
2023-02-13T15:06:50.745Z,102572.44
2023-02-13T15:09:39.073Z,102577.81
2023-02-13T15:12:26.461Z,102579.53
2023-02-13T15:14:54.711Z,102552.94
2023-02-13T15:17:27.496Z,102578.84
2023-02-13T15:19:57.868Z,102583.16
2023-02-13T15:22:34.847Z,102580.50
2023-02-13T15:25:02.959Z,102585.84
2023-02-13T15:27:33.193Z,102588.53
2023-02-13T15:30:04.259Z,102588.53
2023-02-13T15:32:37.953Z,102579.53
2023-02-13T15:35:23.032Z,102580.50
2023-02-13T15:37:51.366Z,102582.28
2023-02-13T15:40:26.928Z,102566.84
2023-02-13T15:42:56.668Z,102579.72
2023-02-13T15:45:27.586Z,102584.88
2023-02-13T15:47:59.178Z,102579.72
2023-02-13T15:50:31.937Z,102581.41
2023-02-13T15:53:03.922Z,102587.56
2023-02-13T15:55:36.304Z,102593.88
2023-02-13T15:58:05.163Z,102587.56
2023-02-13T16:00:35.673Z,102595.59
2023-02-13T16:03:08.244Z,102597.31
2023-02-13T16:05:41.535Z,102599.25
2023-02-13T16:08:35.481Z,102593.88
2023-02-13T16:11:31.403Z,102583.00
2023-02-13T16:14:19.169Z,102593.88
2023-02-13T16:16:53.896Z,102599.44
2023-02-13T16:19:29.840Z,102602.88
2023-02-13T16:22:00.612Z,102611.88
2023-02-13T16:24:30.264Z,102609.19
2023-02-13T16:26:58.503Z,102616.25
2023-02-13T16:29:28.592Z,102599.59
2023-02-13T16:32:07.215Z,102617.13
2023-02-13T16:34:37.677Z,102622.59
2023-02-13T16:37:05.861Z,102628.72
2023-02-13T16:39:34.662Z,102630.53
2023-02-13T16:42:02.835Z,102635.91
2023-02-13T16:44:32.104Z,102626.06
2023-02-13T16:47:02.267Z,102635.91
2023-02-13T16:49:33.140Z,102634.09
2023-02-13T16:52:17.039Z,102625.88
2023-02-13T16:54:53.681Z,102634.84
2023-02-13T16:57:25.343Z,102641.06
2023-02-13T16:59:57.853Z,102623.81
2023-02-13T17:02:27.657Z,102647.31
2023-02-13T17:05:00.046Z,102649.22
2023-02-13T17:07:31.179Z,102650.91
2023-02-13T17:10:01.817Z,102630.97
2023-02-13T17:12:31.430Z,102650.91
2023-02-13T17:15:00.559Z,102641.25
2023-02-13T17:17:31.152Z,102659.94
2023-02-13T17:19:59.318Z,102648.41
2023-02-13T17:22:34.387Z,102658.22
2023-02-13T17:25:04.125Z,102654.56
2023-02-13T17:27:32.187Z,102660.91
2023-02-13T17:30:00.411Z,102647.66
2023-02-13T17:32:29.453Z,102661.66
2023-02-13T17:34:57.629Z,102657.16
2023-02-13T17:37:27.708Z,102658.03
2023-02-13T17:39:57.322Z,102655.34
2023-02-13T17:42:27.449Z,102654.38
2023-02-13T17:44:56.790Z,102587.19
2023-02-13T17:47:25.701Z,102660.09
2023-02-13T17:50:01.966Z,102625.72
2023-02-13T17:52:33.233Z,102664.31
2023-02-13T17:55:02.725Z,102656.47
2023-02-13T17:57:31.336Z,102591.00
2023-02-13T18:00:03.492Z,102672.38
2023-02-13T18:02:31.587Z,102669.69
2023-02-13T18:04:59.955Z,102668.84
2023-02-13T18:07:28.135Z,102663.47
2023-02-13T18:09:56.259Z,102672.38
2023-02-13T18:12:26.142Z,102672.38
2023-02-13T18:14:55.060Z,102672.38
2023-02-13T18:17:23.505Z,102674.28
2023-02-13T18:19:51.664Z,102676.97
2023-02-13T18:22:19.808Z,102676.97
2023-02-13T18:24:48.031Z,102665.38
2023-02-13T18:27:16.113Z,102674.28
2023-02-13T18:29:45.648Z,102674.28
2023-02-13T18:32:13.994Z,102675.13
2023-02-13T18:34:42.285Z,102672.38
2023-02-13T18:37:10.519Z,102676.88
2023-02-13T18:39:38.682Z,102635.31
2023-02-13T18:42:07.079Z,102675.22
2023-02-13T18:44:35.173Z,102679.56
2023-02-13T18:47:04.963Z,102669.09
2023-02-13T18:49:33.159Z,102682.25
2023-02-13T18:52:02.384Z,102683.09
2023-02-13T18:54:30.607Z,102678.69
2023-02-13T18:56:59.105Z,102685.75
2023-02-13T18:59:27.242Z,102688.44
2023-02-13T19:01:55.363Z,102688.44
2023-02-13T19:04:24.901Z,102687.59
2023-02-13T19:06:53.052Z,102692.97
2023-02-13T19:09:21.173Z,102692.25
2023-02-13T19:11:49.290Z,102693.06
2023-02-13T19:14:17.395Z,102693.81
2023-02-13T19:16:45.622Z,102694.69
2023-02-13T19:19:13.739Z,102699.16
2023-02-13T19:21:43.236Z,102700.03
2023-02-13T19:24:15.426Z,102699.16
2023-02-13T19:26:44.686Z,102693.31
2023-02-13T19:29:12.773Z,102704.69
2023-02-13T19:31:41.523Z,102701.84
2023-02-13T19:34:09.797Z,102699.34
2023-02-13T19:36:37.886Z,102700.13
2023-02-13T19:39:09.121Z,102692.09
2023-02-13T19:41:37.520Z,102696.56
2023-02-13T19:44:05.544Z,102701.09
2023-02-13T19:46:34.212Z,102702.91
2023-02-13T19:49:03.227Z,102700.22
2023-02-13T19:51:33.174Z,102698.41
2023-02-13T19:54:02.804Z,102708.16
2023-02-13T19:56:33.369Z,102708.16
2023-02-13T19:59:01.432Z,102708.16
2023-02-13T20:01:31.514Z,102705.50
2023-02-13T20:04:00.028Z,102706.44
2023-02-13T20:06:31.671Z,102701.09
2023-02-13T20:09:01.815Z,102704.69
2023-02-13T20:11:31.361Z,102711.81
2023-02-13T20:14:01.840Z,102709.22
2023-02-13T20:16:33.080Z,102714.56
2023-02-13T20:19:03.715Z,102711.03
2023-02-13T20:21:33.149Z,102696.25
2023-02-13T20:24:03.276Z,102715.41
2023-02-13T20:26:34.229Z,102722.53
2023-02-13T20:29:03.022Z,102720.78
2023-02-13T20:31:33.635Z,102724.41
2023-02-13T20:34:02.258Z,102726.13
2023-02-13T20:36:32.936Z,102722.72
2023-02-13T20:39:03.170Z,102724.41
2023-02-13T20:41:34.583Z,102722.00
2023-02-13T20:44:05.428Z,102731.59
2023-02-13T20:46:35.186Z,102731.69
2023-02-13T20:49:03.646Z,102732.47
2023-02-13T20:51:31.912Z,102728.06
2023-02-13T20:54:00.450Z,102736.03
2023-02-13T20:56:29.370Z,102728.25
2023-02-13T20:59:00.497Z,102733.44
2023-02-13T21:01:30.612Z,102735.16
2023-02-13T21:03:59.072Z,102734.44
2023-02-13T21:06:30.031Z,102740.50
2023-02-13T21:08:58.299Z,102692.09
2023-02-13T21:11:28.437Z,102747.59
2023-02-13T21:13:58.455Z,102741.00
2023-02-13T21:16:28.268Z,102745.88
2023-02-13T21:18:58.351Z,102746.75
2023-02-13T21:21:28.620Z,102749.50
2023-02-13T21:23:58.410Z,102742.22
2023-02-13T21:26:27.052Z,102747.59
2023-02-13T21:28:55.674Z,102745.88
2023-02-13T21:31:29.334Z,102745.88
2023-02-13T21:34:00.524Z,102747.75
2023-02-13T21:36:28.743Z,102743.19
2023-02-13T21:38:56.889Z,102739.72
2023-02-13T21:41:25.321Z,102742.41
2023-02-13T21:43:53.412Z,102738.78
2023-02-13T21:46:25.164Z,102737.13
2023-02-13T21:48:54.685Z,102734.28
2023-02-13T21:51:24.076Z,102741.47
2023-02-13T21:53:53.112Z,102744.16
2023-02-13T21:56:22.888Z,102744.16
2023-02-13T21:58:51.385Z,102720.19
2023-02-13T22:01:27.344Z,102748.63
2023-02-13T22:04:00.977Z,102757.53
2023-02-13T22:06:30.347Z,102760.22
2023-02-13T22:08:59.538Z,102761.06
2023-02-13T22:11:28.428Z,102734.44
2023-02-13T22:13:57.727Z,102761.94
2023-02-13T22:16:26.497Z,102766.44
2023-02-13T22:18:54.646Z,102757.47
2023-02-13T22:21:25.657Z,102771.78
2023-02-13T22:23:54.244Z,102759.59
2023-02-13T22:26:25.234Z,102770.84
2023-02-13T22:28:54.386Z,102771.78
2023-02-13T22:31:25.658Z,102769.97
2023-02-13T22:34:03.440Z,102768.19
2023-02-13T22:36:34.477Z,102767.31
2023-02-13T22:39:02.614Z,102775.25
2023-02-13T22:41:30.920Z,102774.38
2023-02-13T22:43:59.204Z,102779.75
2023-02-13T22:46:29.731Z,102790.47
2023-02-13T22:48:57.999Z,102779.75
2023-02-13T22:51:28.557Z,102794.03
2023-02-13T22:53:58.793Z,102795.81
2023-02-13T22:56:28.119Z,102792.22
2023-02-13T22:58:56.420Z,102797.56
2023-02-13T23:01:26.990Z,102795.81
2023-02-13T23:03:55.928Z,102769.53
2023-02-13T23:06:24.855Z,102786.84
2023-02-13T23:08:53.775Z,102791.34
2023-02-13T23:11:42.895Z,102791.25
2023-02-13T23:14:11.170Z,102797.56
2023-02-13T23:16:57.204Z,102795.81
2023-02-13T23:19:27.515Z,102797.75
2023-02-13T23:21:56.067Z,102768.31
2023-02-13T23:24:24.229Z,102802.94
2023-02-13T23:26:53.727Z,102802.94
2023-02-13T23:29:22.290Z,102802.94
2023-02-13T23:31:50.559Z,102781.13
2023-02-13T23:34:18.713Z,102792.22
2023-02-13T23:36:46.761Z,102797.56
2023-02-13T23:39:15.143Z,102752.56
2023-02-13T23:41:43.251Z,102765.56
2023-02-13T23:44:12.669Z,102785.09
2023-02-13T23:46:40.735Z,102790.47
2023-02-13T23:49:08.776Z,102797.56
2023-02-13T23:51:37.724Z,102792.22
2023-02-13T23:54:05.780Z,102794.91
2023-02-13T23:56:33.845Z,102799.28
2023-02-13T23:59:01.922Z,102798.41
